sensor_id;sensor_type;location;lat;lon;timestamp;P1;durP1;ratioP1;P2;durP2;ratioP2
73872;SDS011;62206;47.568;9.364;2023-12-29T00:02:06;14.95;;;11.57;;
73872;SDS011;62206;47.568;9.364;2023-12-29T00:04:34;15.80;;;12.00;;
73872;SDS011;62206;47.568;9.364;2023-12-29T00:07:01;13.07;;;10.55;;
73872;SDS011;62206;47.568;9.364;2023-12-29T00:09:28;13.07;;;11.48;;
73872;SDS011;62206;47.568;9.364;2023-12-29T00:11:55;13.43;;;11.03;;
73872;SDS011;62206;47.568;9.364;2023-12-29T00:14:22;12.95;;;11.48;;
73872;SDS011;62206;47.568;9.364;2023-12-29T00:16:50;13.23;;;11.65;;
73872;SDS011;62206;47.568;9.364;2023-12-29T00:19:16;13.80;;;10.95;;
73872;SDS011;62206;47.568;9.364;2023-12-29T00:21:45;14.38;;;11.60;;
73872;SDS011;62206;47.568;9.364;2023-12-29T00:24:12;12.43;;;11.13;;
73872;SDS011;62206;47.568;9.364;2023-12-29T00:26:39;15.25;;;11.20;;
73872;SDS011;62206;47.568;9.364;2023-12-29T00:29:06;11.70;;;10.48;;
73872;SDS011;62206;47.568;9.364;2023-12-29T00:31:33;12.60;;;10.45;;
73872;SDS011;62206;47.568;9.364;2023-12-29T00:34:00;12.68;;;11.23;;
73872;SDS011;62206;47.568;9.364;2023-12-29T00:36:27;11.93;;;9.80;;
73872;SDS011;62206;47.568;9.364;2023-12-29T00:38:56;12.98;;;10.65;;
73872;SDS011;62206;47.568;9.364;2023-12-29T00:41:23;13.05;;;9.98;;
73872;SDS011;62206;47.568;9.364;2023-12-29T00:43:50;13.25;;;10.15;;
73872;SDS011;62206;47.568;9.364;2023-12-29T00:46:17;12.48;;;11.20;;
73872;SDS011;62206;47.568;9.364;2023-12-29T00:48:44;11.13;;;9.93;;
73872;SDS011;62206;47.568;9.364;2023-12-29T00:51:12;12.85;;;10.85;;
73872;SDS011;62206;47.568;9.364;2023-12-29T00:53:40;11.50;;;10.38;;
73872;SDS011;62206;47.568;9.364;2023-12-29T00:56:10;11.95;;;9.70;;
73872;SDS011;62206;47.568;9.364;2023-12-29T00:58:37;11.52;;;10.32;;
73872;SDS011;62206;47.568;9.364;2023-12-29T01:01:06;10.50;;;9.33;;
73872;SDS011;62206;47.568;9.364;2023-12-29T01:03:36;15.68;;;10.98;;
73872;SDS011;62206;47.568;9.364;2023-12-29T01:06:03;13.45;;;10.68;;
73872;SDS011;62206;47.568;9.364;2023-12-29T01:08:31;11.07;;;9.30;;
73872;SDS011;62206;47.568;9.364;2023-12-29T01:10:58;14.02;;;11.00;;
73872;SDS011;62206;47.568;9.364;2023-12-29T01:13:27;12.90;;;11.30;;
73872;SDS011;62206;47.568;9.364;2023-12-29T01:15:54;13.55;;;10.93;;
73872;SDS011;62206;47.568;9.364;2023-12-29T01:18:21;12.82;;;11.18;;
73872;SDS011;62206;47.568;9.364;2023-12-29T01:20:48;12.15;;;10.45;;
73872;SDS011;62206;47.568;9.364;2023-12-29T01:23:16;13.88;;;11.60;;
73872;SDS011;62206;47.568;9.364;2023-12-29T01:25:43;12.40;;;10.37;;
73872;SDS011;62206;47.568;9.364;2023-12-29T01:28:10;11.05;;;9.95;;
73872;SDS011;62206;47.568;9.364;2023-12-29T01:30:39;12.00;;;10.80;;
73872;SDS011;62206;47.568;9.364;2023-12-29T01:33:06;12.27;;;10.43;;
73872;SDS011;62206;47.568;9.364;2023-12-29T01:35:33;11.15;;;9.90;;
73872;SDS011;62206;47.568;9.364;2023-12-29T01:38:02;11.10;;;9.93;;
73872;SDS011;62206;47.568;9.364;2023-12-29T01:40:29;11.85;;;10.40;;
73872;SDS011;62206;47.568;9.364;2023-12-29T01:42:56;13.35;;;9.93;;
73872;SDS011;62206;47.568;9.364;2023-12-29T01:45:25;13.60;;;10.98;;
73872;SDS011;62206;47.568;9.364;2023-12-29T01:47:54;13.13;;;11.02;;
73872;SDS011;62206;47.568;9.364;2023-12-29T01:50:21;11.43;;;10.23;;
73872;SDS011;62206;47.568;9.364;2023-12-29T01:52:49;11.57;;;10.23;;
73872;SDS011;62206;47.568;9.364;2023-12-29T01:55:18;13.50;;;10.73;;
73872;SDS011;62206;47.568;9.364;2023-12-29T01:57:45;12.38;;;9.90;;
73872;SDS011;62206;47.568;9.364;2023-12-29T02:00:13;13.75;;;10.73;;
73872;SDS011;62206;47.568;9.364;2023-12-29T02:02:41;12.60;;;10.83;;
73872;SDS011;62206;47.568;9.364;2023-12-29T02:05:10;13.65;;;10.68;;
73872;SDS011;62206;47.568;9.364;2023-12-29T02:07:40;11.82;;;10.63;;
73872;SDS011;62206;47.568;9.364;2023-12-29T02:10:07;13.38;;;10.52;;
73872;SDS011;62206;47.568;9.364;2023-12-29T02:12:35;11.98;;;10.45;;
73872;SDS011;62206;47.568;9.364;2023-12-29T02:15:03;11.97;;;10.77;;
73872;SDS011;62206;47.568;9.364;2023-12-29T02:17:31;12.35;;;10.32;;
73872;SDS011;62206;47.568;9.364;2023-12-29T02:20:05;13.25;;;10.88;;
73872;SDS011;62206;47.568;9.364;2023-12-29T02:22:34;11.65;;;10.27;;
73872;SDS011;62206;47.568;9.364;2023-12-29T02:25:02;12.43;;;10.65;;
73872;SDS011;62206;47.568;9.364;2023-12-29T02:27:32;12.13;;;10.30;;
73872;SDS011;62206;47.568;9.364;2023-12-29T02:30:06;12.05;;;9.85;;
73872;SDS011;62206;47.568;9.364;2023-12-29T02:32:37;10.82;;;9.20;;
73872;SDS011;62206;47.568;9.364;2023-12-29T02:35:06;11.95;;;10.27;;
73872;SDS011;62206;47.568;9.364;2023-12-29T02:37:33;11.10;;;10.00;;
73872;SDS011;62206;47.568;9.364;2023-12-29T02:40:02;10.03;;;8.97;;
73872;SDS011;62206;47.568;9.364;2023-12-29T02:42:30;11.75;;;10.23;;
73872;SDS011;62206;47.568;9.364;2023-12-29T02:44:57;13.38;;;9.93;;
73872;SDS011;62206;47.568;9.364;2023-12-29T02:47:25;11.45;;;9.73;;
73872;SDS011;62206;47.568;9.364;2023-12-29T02:49:52;13.43;;;9.77;;
73872;SDS011;62206;47.568;9.364;2023-12-29T02:52:19;10.73;;;9.47;;
73872;SDS011;62206;47.568;9.364;2023-12-29T02:54:47;10.77;;;9.68;;
73872;SDS011;62206;47.568;9.364;2023-12-29T02:57:15;10.70;;;9.30;;
73872;SDS011;62206;47.568;9.364;2023-12-29T02:59:42;11.02;;;9.13;;
73872;SDS011;62206;47.568;9.364;2023-12-29T03:02:10;10.27;;;8.57;;
73872;SDS011;62206;47.568;9.364;2023-12-29T03:04:36;10.03;;;9.00;;
73872;SDS011;62206;47.568;9.364;2023-12-29T03:07:03;11.02;;;9.35;;
73872;SDS011;62206;47.568;9.364;2023-12-29T03:09:31;9.73;;;8.68;;
73872;SDS011;62206;47.568;9.364;2023-12-29T03:11:58;10.52;;;8.50;;
73872;SDS011;62206;47.568;9.364;2023-12-29T03:14:26;9.68;;;8.63;;
73872;SDS011;62206;47.568;9.364;2023-12-29T03:16:53;11.23;;;8.37;;
73872;SDS011;62206;47.568;9.364;2023-12-29T03:19:20;9.35;;;7.90;;
73872;SDS011;62206;47.568;9.364;2023-12-29T03:21:47;9.55;;;8.52;;
73872;SDS011;62206;47.568;9.364;2023-12-29T03:24:15;8.98;;;7.68;;
73872;SDS011;62206;47.568;9.364;2023-12-29T03:26:42;9.77;;;8.40;;
73872;SDS011;62206;47.568;9.364;2023-12-29T03:29:09;11.50;;;8.57;;
73872;SDS011;62206;47.568;9.364;2023-12-29T03:31:39;9.75;;;8.75;;
73872;SDS011;62206;47.568;9.364;2023-12-29T03:34:06;9.88;;;8.52;;
73872;SDS011;62206;47.568;9.364;2023-12-29T03:36:33;9.57;;;7.72;;
73872;SDS011;62206;47.568;9.364;2023-12-29T03:39:00;10.13;;;9.07;;
73872;SDS011;62206;47.568;9.364;2023-12-29T03:41:27;9.83;;;7.90;;
73872;SDS011;62206;47.568;9.364;2023-12-29T03:43:54;9.82;;;8.82;;
73872;SDS011;62206;47.568;9.364;2023-12-29T03:46:22;9.40;;;8.35;;
73872;SDS011;62206;47.568;9.364;2023-12-29T03:48:53;10.43;;;7.82;;
73872;SDS011;62206;47.568;9.364;2023-12-29T03:51:20;8.57;;;7.63;;
73872;SDS011;62206;47.568;9.364;2023-12-29T03:53:48;8.90;;;8.00;;
73872;SDS011;62206;47.568;9.364;2023-12-29T03:56:15;8.40;;;7.45;;
73872;SDS011;62206;47.568;9.364;2023-12-29T03:58:43;9.10;;;7.05;;
73872;SDS011;62206;47.568;9.364;2023-12-29T04:01:10;9.73;;;7.78;;
73872;SDS011;62206;47.568;9.364;2023-12-29T04:03:37;9.25;;;7.93;;
73872;SDS011;62206;47.568;9.364;2023-12-29T04:06:06;8.53;;;7.37;;
73872;SDS011;62206;47.568;9.364;2023-12-29T04:08:34;8.95;;;7.95;;
73872;SDS011;62206;47.568;9.364;2023-12-29T04:11:01;9.93;;;8.93;;
73872;SDS011;62206;47.568;9.364;2023-12-29T04:13:28;8.90;;;7.93;;
73872;SDS011;62206;47.568;9.364;2023-12-29T04:15:56;10.00;;;9.00;;
73872;SDS011;62206;47.568;9.364;2023-12-29T04:18:23;9.10;;;8.20;;
73872;SDS011;62206;47.568;9.364;2023-12-29T04:20:50;8.95;;;7.35;;
73872;SDS011;62206;47.568;9.364;2023-12-29T04:23:19;9.32;;;8.32;;
73872;SDS011;62206;47.568;9.364;2023-12-29T04:25:46;9.13;;;8.18;;
73872;SDS011;62206;47.568;9.364;2023-12-29T04:28:15;12.68;;;8.68;;
73872;SDS011;62206;47.568;9.364;2023-12-29T04:30:42;10.17;;;7.67;;
73872;SDS011;62206;47.568;9.364;2023-12-29T04:33:09;10.15;;;7.78;;
73872;SDS011;62206;47.568;9.364;2023-12-29T04:35:36;9.68;;;8.63;;
73872;SDS011;62206;47.568;9.364;2023-12-29T04:38:03;11.18;;;8.60;;
73872;SDS011;62206;47.568;9.364;2023-12-29T04:40:33;10.02;;;8.40;;
73872;SDS011;62206;47.568;9.364;2023-12-29T04:42:59;9.87;;;7.97;;
73872;SDS011;62206;47.568;9.364;2023-12-29T04:45:27;8.90;;;7.63;;
73872;SDS011;62206;47.568;9.364;2023-12-29T04:47:54;9.18;;;8.18;;
73872;SDS011;62206;47.568;9.364;2023-12-29T04:50:21;10.30;;;8.13;;
73872;SDS011;62206;47.568;9.364;2023-12-29T04:52:48;10.35;;;8.80;;
73872;SDS011;62206;47.568;9.364;2023-12-29T04:55:15;8.53;;;7.63;;
73872;SDS011;62206;47.568;9.364;2023-12-29T04:57:43;8.75;;;7.65;;
73872;SDS011;62206;47.568;9.364;2023-12-29T05:00:11;10.48;;;8.98;;
73872;SDS011;62206;47.568;9.364;2023-12-29T05:02:39;9.25;;;8.35;;
73872;SDS011;62206;47.568;9.364;2023-12-29T05:05:06;10.50;;;8.57;;
73872;SDS011;62206;47.568;9.364;2023-12-29T05:07:33;9.63;;;8.60;;
73872;SDS011;62206;47.568;9.364;2023-12-29T05:10:00;9.07;;;7.88;;
73872;SDS011;62206;47.568;9.364;2023-12-29T05:12:27;10.50;;;7.88;;
73872;SDS011;62206;47.568;9.364;2023-12-29T05:14:57;9.70;;;7.78;;
73872;SDS011;62206;47.568;9.364;2023-12-29T05:17:24;10.23;;;8.07;;
73872;SDS011;62206;47.568;9.364;2023-12-29T05:19:50;8.80;;;7.90;;
73872;SDS011;62206;47.568;9.364;2023-12-29T05:22:18;9.45;;;8.13;;
73872;SDS011;62206;47.568;9.364;2023-12-29T05:24:45;9.75;;;8.13;;
73872;SDS011;62206;47.568;9.364;2023-12-29T05:27:11;8.82;;;7.63;;
73872;SDS011;62206;47.568;9.364;2023-12-29T05:29:39;10.85;;;7.82;;
73872;SDS011;62206;47.568;9.364;2023-12-29T05:32:07;8.43;;;7.53;;
73872;SDS011;62206;47.568;9.364;2023-12-29T05:34:35;9.02;;;7.72;;
73872;SDS011;62206;47.568;9.364;2023-12-29T05:37:03;9.68;;;8.60;;
73872;SDS011;62206;47.568;9.364;2023-12-29T05:39:29;10.52;;;7.80;;
73872;SDS011;62206;47.568;9.364;2023-12-29T05:41:56;10.10;;;8.98;;
73872;SDS011;62206;47.568;9.364;2023-12-29T05:44:24;8.87;;;7.70;;
73872;SDS011;62206;47.568;9.364;2023-12-29T05:46:51;9.43;;;8.20;;
73872;SDS011;62206;47.568;9.364;2023-12-29T05:49:25;8.57;;;7.40;;
73872;SDS011;62206;47.568;9.364;2023-12-29T05:51:52;8.27;;;7.40;;
73872;SDS011;62206;47.568;9.364;2023-12-29T05:54:19;8.95;;;7.88;;
73872;SDS011;62206;47.568;9.364;2023-12-29T05:56:46;9.63;;;7.90;;
73872;SDS011;62206;47.568;9.364;2023-12-29T05:59:14;8.95;;;7.18;;
73872;SDS011;62206;47.568;9.364;2023-12-29T06:01:41;9.73;;;8.05;;
73872;SDS011;62206;47.568;9.364;2023-12-29T06:04:08;8.52;;;7.40;;
73872;SDS011;62206;47.568;9.364;2023-12-29T06:06:36;7.80;;;7.00;;
73872;SDS011;62206;47.568;9.364;2023-12-29T06:09:03;8.53;;;6.50;;
73872;SDS011;62206;47.568;9.364;2023-12-29T06:11:29;9.25;;;6.75;;
73872;SDS011;62206;47.568;9.364;2023-12-29T06:13:57;7.65;;;6.75;;
73872;SDS011;62206;47.568;9.364;2023-12-29T06:16:24;8.60;;;7.15;;
73872;SDS011;62206;47.568;9.364;2023-12-29T06:18:52;7.63;;;6.70;;
73872;SDS011;62206;47.568;9.364;2023-12-29T06:21:20;8.63;;;7.17;;
73872;SDS011;62206;47.568;9.364;2023-12-29T06:23:48;9.18;;;7.22;;
73872;SDS011;62206;47.568;9.364;2023-12-29T06:26:15;8.38;;;7.50;;
73872;SDS011;62206;47.568;9.364;2023-12-29T06:28:43;8.45;;;7.35;;
73872;SDS011;62206;47.568;9.364;2023-12-29T06:31:11;9.18;;;7.18;;
73872;SDS011;62206;47.568;9.364;2023-12-29T06:33:40;7.80;;;7.00;;
73872;SDS011;62206;47.568;9.364;2023-12-29T06:36:08;10.10;;;7.43;;
73872;SDS011;62206;47.568;9.364;2023-12-29T06:38:35;62.88;;;32.80;;
73872;SDS011;62206;47.568;9.364;2023-12-29T06:41:04;24.80;;;15.15;;
73872;SDS011;62206;47.568;9.364;2023-12-29T06:43:33;16.98;;;10.68;;
73872;SDS011;62206;47.568;9.364;2023-12-29T06:46:00;10.87;;;7.57;;
73872;SDS011;62206;47.568;9.364;2023-12-29T06:48:27;9.15;;;7.50;;
73872;SDS011;62206;47.568;9.364;2023-12-29T06:50:54;9.40;;;7.30;;
73872;SDS011;62206;47.568;9.364;2023-12-29T06:53:21;8.07;;;6.78;;
73872;SDS011;62206;47.568;9.364;2023-12-29T06:55:48;8.43;;;7.32;;
73872;SDS011;62206;47.568;9.364;2023-12-29T06:58:18;8.73;;;7.83;;
73872;SDS011;62206;47.568;9.364;2023-12-29T07:00:45;11.25;;;7.88;;
73872;SDS011;62206;47.568;9.364;2023-12-29T07:03:12;13.38;;;9.80;;
73872;SDS011;62206;47.568;9.364;2023-12-29T07:05:41;9.55;;;7.85;;
73872;SDS011;62206;47.568;9.364;2023-12-29T07:08:08;15.65;;;10.25;;
73872;SDS011;62206;47.568;9.364;2023-12-29T07:10:35;16.17;;;10.17;;
73872;SDS011;62206;47.568;9.364;2023-12-29T07:13:03;11.70;;;8.32;;
73872;SDS011;62206;47.568;9.364;2023-12-29T07:15:31;9.80;;;7.68;;
73872;SDS011;62206;47.568;9.364;2023-12-29T07:17:58;11.07;;;7.35;;
73872;SDS011;62206;47.568;9.364;2023-12-29T07:20:26;10.93;;;7.55;;
73872;SDS011;62206;47.568;9.364;2023-12-29T07:22:53;13.47;;;10.23;;
73872;SDS011;62206;47.568;9.364;2023-12-29T07:25:20;10.95;;;9.55;;
73872;SDS011;62206;47.568;9.364;2023-12-29T07:27:48;16.25;;;11.73;;
73872;SDS011;62206;47.568;9.364;2023-12-29T07:30:15;17.60;;;11.35;;
73872;SDS011;62206;47.568;9.364;2023-12-29T07:32:44;16.30;;;11.73;;
73872;SDS011;62206;47.568;9.364;2023-12-29T07:35:12;20.30;;;11.60;;
73872;SDS011;62206;47.568;9.364;2023-12-29T07:37:42;16.00;;;9.02;;
73872;SDS011;62206;47.568;9.364;2023-12-29T07:40:10;21.13;;;11.52;;
73872;SDS011;62206;47.568;9.364;2023-12-29T07:42:39;11.55;;;9.35;;
73872;SDS011;62206;47.568;9.364;2023-12-29T07:45:07;13.27;;;8.82;;
73872;SDS011;62206;47.568;9.364;2023-12-29T07:47:35;13.67;;;9.30;;
73872;SDS011;62206;47.568;9.364;2023-12-29T07:50:04;12.05;;;8.82;;
73872;SDS011;62206;47.568;9.364;2023-12-29T07:52:31;10.77;;;8.77;;
73872;SDS011;62206;47.568;9.364;2023-12-29T07:54:58;11.40;;;7.50;;
73872;SDS011;62206;47.568;9.364;2023-12-29T07:57:26;9.43;;;7.60;;
73872;SDS011;62206;47.568;9.364;2023-12-29T07:59:53;8.07;;;7.27;;
73872;SDS011;62206;47.568;9.364;2023-12-29T08:02:21;8.02;;;7.22;;
73872;SDS011;62206;47.568;9.364;2023-12-29T08:04:48;7.93;;;6.85;;
73872;SDS011;62206;47.568;9.364;2023-12-29T08:07:16;7.80;;;6.43;;
73872;SDS011;62206;47.568;9.364;2023-12-29T08:09:43;9.88;;;6.15;;
73872;SDS011;62206;47.568;9.364;2023-12-29T08:12:11;9.30;;;6.57;;
73872;SDS011;62206;47.568;9.364;2023-12-29T08:14:38;6.85;;;6.13;;
73872;SDS011;62206;47.568;9.364;2023-12-29T08:17:05;7.53;;;6.82;;
73872;SDS011;62206;47.568;9.364;2023-12-29T08:19:33;6.85;;;6.15;;
73872;SDS011;62206;47.568;9.364;2023-12-29T08:22:00;7.43;;;6.63;;
73872;SDS011;62206;47.568;9.364;2023-12-29T08:24:28;7.17;;;6.40;;
73872;SDS011;62206;47.568;9.364;2023-12-29T08:26:56;8.55;;;6.30;;
73872;SDS011;62206;47.568;9.364;2023-12-29T08:29:23;7.90;;;6.65;;
73872;SDS011;62206;47.568;9.364;2023-12-29T08:31:51;10.70;;;9.32;;
73872;SDS011;62206;47.568;9.364;2023-12-29T08:34:18;11.60;;;9.90;;
73872;SDS011;62206;47.568;9.364;2023-12-29T08:36:45;10.57;;;7.57;;
73872;SDS011;62206;47.568;9.364;2023-12-29T08:39:12;14.27;;;9.65;;
73872;SDS011;62206;47.568;9.364;2023-12-29T08:41:42;12.07;;;7.80;;
73872;SDS011;62206;47.568;9.364;2023-12-29T08:44:09;10.68;;;7.53;;
73872;SDS011;62206;47.568;9.364;2023-12-29T08:46:36;9.07;;;6.88;;
73872;SDS011;62206;47.568;9.364;2023-12-29T08:49:03;8.33;;;7.13;;
73872;SDS011;62206;47.568;9.364;2023-12-29T08:51:30;7.80;;;7.05;;
73872;SDS011;62206;47.568;9.364;2023-12-29T08:53:57;7.00;;;6.07;;
73872;SDS011;62206;47.568;9.364;2023-12-29T08:56:25;6.82;;;6.13;;
73872;SDS011;62206;47.568;9.364;2023-12-29T08:58:54;9.50;;;7.10;;
73872;SDS011;62206;47.568;9.364;2023-12-29T09:01:21;9.87;;;6.67;;
73872;SDS011;62206;47.568;9.364;2023-12-29T09:03:49;8.65;;;6.90;;
73872;SDS011;62206;47.568;9.364;2023-12-29T09:06:16;7.82;;;7.03;;
73872;SDS011;62206;47.568;9.364;2023-12-29T09:08:42;7.18;;;5.95;;
73872;SDS011;62206;47.568;9.364;2023-12-29T09:11:10;7.40;;;6.68;;
73872;SDS011;62206;47.568;9.364;2023-12-29T09:13:37;7.87;;;6.53;;
73872;SDS011;62206;47.568;9.364;2023-12-29T09:16:05;8.27;;;6.43;;
73872;SDS011;62206;47.568;9.364;2023-12-29T09:18:33;7.90;;;6.63;;
73872;SDS011;62206;47.568;9.364;2023-12-29T09:21:00;7.72;;;6.57;;
73872;SDS011;62206;47.568;9.364;2023-12-29T09:23:27;8.75;;;6.78;;
73872;SDS011;62206;47.568;9.364;2023-12-29T09:25:55;8.30;;;7.47;;
73872;SDS011;62206;47.568;9.364;2023-12-29T09:28:22;8.10;;;7.25;;
73872;SDS011;62206;47.568;9.364;2023-12-29T09:30:49;16.40;;;11.90;;
73872;SDS011;62206;47.568;9.364;2023-12-29T09:33:17;12.70;;;10.38;;
73872;SDS011;62206;47.568;9.364;2023-12-29T09:35:44;11.90;;;8.80;;
73872;SDS011;62206;47.568;9.364;2023-12-29T09:38:11;10.17;;;8.07;;
73872;SDS011;62206;47.568;9.364;2023-12-29T09:40:40;9.02;;;7.40;;
73872;SDS011;62206;47.568;9.364;2023-12-29T09:43:07;9.45;;;7.50;;
73872;SDS011;62206;47.568;9.364;2023-12-29T09:45:36;8.60;;;6.57;;
73872;SDS011;62206;47.568;9.364;2023-12-29T09:48:05;7.82;;;6.55;;
73872;SDS011;62206;47.568;9.364;2023-12-29T09:50:35;8.80;;;6.90;;
73872;SDS011;62206;47.568;9.364;2023-12-29T09:53:02;7.13;;;5.55;;
73872;SDS011;62206;47.568;9.364;2023-12-29T09:55:31;7.40;;;6.60;;
73872;SDS011;62206;47.568;9.364;2023-12-29T09:57:59;7.43;;;6.60;;
73872;SDS011;62206;47.568;9.364;2023-12-29T10:00:26;8.00;;;6.05;;
73872;SDS011;62206;47.568;9.364;2023-12-29T10:02:55;7.83;;;5.97;;
73872;SDS011;62206;47.568;9.364;2023-12-29T10:05:23;9.05;;;7.25;;
73872;SDS011;62206;47.568;9.364;2023-12-29T10:07:51;7.57;;;6.20;;
73872;SDS011;62206;47.568;9.364;2023-12-29T10:10:19;7.03;;;6.28;;
73872;SDS011;62206;47.568;9.364;2023-12-29T10:12:48;7.63;;;5.88;;
73872;SDS011;62206;47.568;9.364;2023-12-29T10:15:15;7.73;;;5.30;;
73872;SDS011;62206;47.568;9.364;2023-12-29T10:17:50;7.10;;;5.95;;
73872;SDS011;62206;47.568;9.364;2023-12-29T10:23:08;7.35;;;6.53;;
73872;SDS011;62206;47.568;9.364;2023-12-29T10:25:38;8.68;;;7.20;;
73872;SDS011;62206;47.568;9.364;2023-12-29T10:28:06;7.77;;;6.67;;
73872;SDS011;62206;47.568;9.364;2023-12-29T10:30:34;7.35;;;6.40;;
73872;SDS011;62206;47.568;9.364;2023-12-29T10:33:02;7.35;;;6.60;;
73872;SDS011;62206;47.568;9.364;2023-12-29T10:35:30;8.02;;;5.90;;
73872;SDS011;62206;47.568;9.364;2023-12-29T10:38:10;7.15;;;6.45;;
73872;SDS011;62206;47.568;9.364;2023-12-29T10:40:38;5.67;;;5.07;;
73872;SDS011;62206;47.568;9.364;2023-12-29T10:43:05;6.78;;;5.65;;
73872;SDS011;62206;47.568;9.364;2023-12-29T10:45:34;8.27;;;6.38;;
73872;SDS011;62206;47.568;9.364;2023-12-29T10:48:02;7.03;;;6.18;;
73872;SDS011;62206;47.568;9.364;2023-12-29T10:50:29;8.20;;;7.40;;
73872;SDS011;62206;47.568;9.364;2023-12-29T10:55:40;8.00;;;6.05;;
73872;SDS011;62206;47.568;9.364;2023-12-29T10:58:07;8.73;;;7.10;;
73872;SDS011;62206;47.568;9.364;2023-12-29T11:00:34;9.57;;;7.35;;
73872;SDS011;62206;47.568;9.364;2023-12-29T11:03:01;7.07;;;6.35;;
73872;SDS011;62206;47.568;9.364;2023-12-29T11:05:28;7.73;;;5.80;;
73872;SDS011;62206;47.568;9.364;2023-12-29T11:07:55;6.57;;;5.95;;
73872;SDS011;62206;47.568;9.364;2023-12-29T11:10:26;6.05;;;5.40;;
73872;SDS011;62206;47.568;9.364;2023-12-29T11:12:53;5.28;;;4.75;;
73872;SDS011;62206;47.568;9.364;2023-12-29T11:15:20;5.40;;;4.90;;
73872;SDS011;62206;47.568;9.364;2023-12-29T11:17:48;5.40;;;4.90;;
73872;SDS011;62206;47.568;9.364;2023-12-29T11:20:16;5.40;;;4.55;;
73872;SDS011;62206;47.568;9.364;2023-12-29T11:22:45;7.53;;;5.38;;
73872;SDS011;62206;47.568;9.364;2023-12-29T11:25:13;6.88;;;5.20;;
73872;SDS011;62206;47.568;9.364;2023-12-29T11:27:42;6.53;;;5.00;;
73872;SDS011;62206;47.568;9.364;2023-12-29T11:30:09;5.70;;;4.83;;
73872;SDS011;62206;47.568;9.364;2023-12-29T11:32:40;5.55;;;4.70;;
73872;SDS011;62206;47.568;9.364;2023-12-29T11:35:11;5.50;;;4.90;;
73872;SDS011;62206;47.568;9.364;2023-12-29T11:37:46;5.53;;;4.60;;
73872;SDS011;62206;47.568;9.364;2023-12-29T11:40:19;5.90;;;5.30;;
73872;SDS011;62206;47.568;9.364;2023-12-29T11:42:51;5.37;;;4.60;;
73872;SDS011;62206;47.568;9.364;2023-12-29T11:45:28;5.78;;;4.05;;
73872;SDS011;62206;47.568;9.364;2023-12-29T11:47:57;5.47;;;4.95;;
73872;SDS011;62206;47.568;9.364;2023-12-29T11:50:28;5.43;;;4.85;;
73872;SDS011;62206;47.568;9.364;2023-12-29T11:52:56;5.88;;;4.50;;
73872;SDS011;62206;47.568;9.364;2023-12-29T11:55:27;5.03;;;4.23;;
73872;SDS011;62206;47.568;9.364;2023-12-29T11:57:57;5.15;;;4.63;;
73872;SDS011;62206;47.568;9.364;2023-12-29T12:00:41;5.20;;;4.63;;
73872;SDS011;62206;47.568;9.364;2023-12-29T12:03:15;5.28;;;4.53;;
73872;SDS011;62206;47.568;9.364;2023-12-29T12:05:46;5.13;;;4.07;;
73872;SDS011;62206;47.568;9.364;2023-12-29T12:10:57;4.90;;;4.40;;
73872;SDS011;62206;47.568;9.364;2023-12-29T12:14:03;5.07;;;4.05;;
73872;SDS011;62206;47.568;9.364;2023-12-29T12:16:47;4.70;;;4.18;;
73872;SDS011;62206;47.568;9.364;2023-12-29T12:19:14;4.28;;;3.65;;
73872;SDS011;62206;47.568;9.364;2023-12-29T12:21:42;4.30;;;3.67;;
73872;SDS011;62206;47.568;9.364;2023-12-29T12:24:13;4.72;;;3.47;;
73872;SDS011;62206;47.568;9.364;2023-12-29T12:26:41;5.10;;;4.60;;
73872;SDS011;62206;47.568;9.364;2023-12-29T12:29:12;4.40;;;3.58;;
73872;SDS011;62206;47.568;9.364;2023-12-29T12:31:50;4.95;;;4.00;;
73872;SDS011;62206;47.568;9.364;2023-12-29T12:34:18;4.13;;;3.73;;
73872;SDS011;62206;47.568;9.364;2023-12-29T12:36:47;4.80;;;3.97;;
73872;SDS011;62206;47.568;9.364;2023-12-29T12:39:15;4.97;;;3.25;;
73872;SDS011;62206;47.568;9.364;2023-12-29T12:41:43;4.40;;;3.45;;
73872;SDS011;62206;47.568;9.364;2023-12-29T12:44:12;3.97;;;3.33;;
73872;SDS011;62206;47.568;9.364;2023-12-29T12:46:40;5.60;;;4.00;;
73872;SDS011;62206;47.568;9.364;2023-12-29T12:49:09;4.30;;;3.75;;
73872;SDS011;62206;47.568;9.364;2023-12-29T12:51:36;4.20;;;3.80;;
73872;SDS011;62206;47.568;9.364;2023-12-29T12:54:03;4.55;;;3.90;;
73872;SDS011;62206;47.568;9.364;2023-12-29T12:56:30;4.03;;;3.35;;
73872;SDS011;62206;47.568;9.364;2023-12-29T12:58:58;5.30;;;3.73;;
73872;SDS011;62206;47.568;9.364;2023-12-29T13:01:27;4.47;;;3.80;;
73872;SDS011;62206;47.568;9.364;2023-12-29T13:03:55;4.10;;;3.70;;
73872;SDS011;62206;47.568;9.364;2023-12-29T13:06:23;3.80;;;3.40;;
73872;SDS011;62206;47.568;9.364;2023-12-29T13:08:50;5.03;;;3.72;;
73872;SDS011;62206;47.568;9.364;2023-12-29T13:11:19;4.60;;;3.87;;
73872;SDS011;62206;47.568;9.364;2023-12-29T13:13:50;3.90;;;3.25;;
73872;SDS011;62206;47.568;9.364;2023-12-29T13:16:30;4.45;;;3.85;;
73872;SDS011;62206;47.568;9.364;2023-12-29T13:18:57;4.25;;;3.70;;
73872;SDS011;62206;47.568;9.364;2023-12-29T13:21:24;4.30;;;3.88;;
73872;SDS011;62206;47.568;9.364;2023-12-29T13:23:51;4.77;;;3.90;;
73872;SDS011;62206;47.568;9.364;2023-12-29T13:26:20;4.30;;;3.80;;
73872;SDS011;62206;47.568;9.364;2023-12-29T13:28:48;4.43;;;3.60;;
73872;SDS011;62206;47.568;9.364;2023-12-29T13:31:15;4.28;;;3.88;;
73872;SDS011;62206;47.568;9.364;2023-12-29T13:33:46;5.15;;;3.85;;
73872;SDS011;62206;47.568;9.364;2023-12-29T13:36:19;5.13;;;3.93;;
73872;SDS011;62206;47.568;9.364;2023-12-29T13:38:51;3.90;;;3.30;;
73872;SDS011;62206;47.568;9.364;2023-12-29T13:41:22;4.70;;;3.80;;
73872;SDS011;62206;47.568;9.364;2023-12-29T13:43:50;4.40;;;3.75;;
73872;SDS011;62206;47.568;9.364;2023-12-29T13:46:18;5.10;;;3.80;;
73872;SDS011;62206;47.568;9.364;2023-12-29T13:48:47;4.20;;;3.53;;
73872;SDS011;62206;47.568;9.364;2023-12-29T13:51:16;4.75;;;3.70;;
73872;SDS011;62206;47.568;9.364;2023-12-29T13:53:43;4.38;;;3.85;;
73872;SDS011;62206;47.568;9.364;2023-12-29T13:56:10;4.50;;;3.75;;
73872;SDS011;62206;47.568;9.364;2023-12-29T13:58:38;4.93;;;3.63;;
73872;SDS011;62206;47.568;9.364;2023-12-29T14:01:06;4.63;;;3.50;;
73872;SDS011;62206;47.568;9.364;2023-12-29T14:03:37;4.63;;;3.65;;
73872;SDS011;62206;47.568;9.364;2023-12-29T14:06:19;4.47;;;3.58;;
73872;SDS011;62206;47.568;9.364;2023-12-29T14:08:48;4.57;;;3.88;;
73872;SDS011;62206;47.568;9.364;2023-12-29T14:11:15;4.25;;;3.60;;
73872;SDS011;62206;47.568;9.364;2023-12-29T14:13:42;4.40;;;3.50;;
73872;SDS011;62206;47.568;9.364;2023-12-29T14:16:10;4.28;;;3.25;;
73872;SDS011;62206;47.568;9.364;2023-12-29T14:21:30;4.55;;;3.83;;
73872;SDS011;62206;47.568;9.364;2023-12-29T14:23:58;4.43;;;3.60;;
73872;SDS011;62206;47.568;9.364;2023-12-29T14:26:33;4.90;;;4.20;;
73872;SDS011;62206;47.568;9.364;2023-12-29T14:29:01;4.25;;;3.45;;
73872;SDS011;62206;47.568;9.364;2023-12-29T14:31:28;5.47;;;3.88;;
73872;SDS011;62206;47.568;9.364;2023-12-29T14:33:58;4.60;;;4.03;;
73872;SDS011;62206;47.568;9.364;2023-12-29T14:36:25;4.40;;;3.47;;
73872;SDS011;62206;47.568;9.364;2023-12-29T14:38:53;4.10;;;3.63;;
73872;SDS011;62206;47.568;9.364;2023-12-29T14:41:20;4.30;;;3.63;;
73872;SDS011;62206;47.568;9.364;2023-12-29T14:43:47;4.97;;;4.00;;
73872;SDS011;62206;47.568;9.364;2023-12-29T14:46:14;4.40;;;3.70;;
73872;SDS011;62206;47.568;9.364;2023-12-29T14:48:41;4.88;;;4.13;;
73872;SDS011;62206;47.568;9.364;2023-12-29T14:51:08;4.13;;;3.50;;
73872;SDS011;62206;47.568;9.364;2023-12-29T14:53:36;4.40;;;3.90;;
73872;SDS011;62206;47.568;9.364;2023-12-29T14:56:05;3.90;;;3.03;;
73872;SDS011;62206;47.568;9.364;2023-12-29T14:58:32;4.53;;;3.42;;